sensor_id;sensor_type;location;lat;lon;timestamp;temperature;humidity
15286;DHT22;7744;52.172;10.668;2023-01-31T00:00:41;2.80;99.90
15286;DHT22;7744;52.172;10.668;2023-01-31T00:03:07;2.80;99.90
15286;DHT22;7744;52.172;10.668;2023-01-31T00:05:33;2.80;99.90
15286;DHT22;7744;52.172;10.668;2023-01-31T00:07:58;2.70;99.90
15286;DHT22;7744;52.172;10.668;2023-01-31T00:10:25;2.70;99.90
15286;DHT22;7744;52.172;10.668;2023-01-31T00:12:50;2.70;99.90
15286;DHT22;7744;52.172;10.668;2023-01-31T00:15:16;2.70;99.90
15286;DHT22;7744;52.172;10.668;2023-01-31T00:17:42;2.70;99.90
15286;DHT22;7744;52.172;10.668;2023-01-31T00:20:09;2.60;99.90
15286;DHT22;7744;52.172;10.668;2023-01-31T00:22:35;2.50;99.90
15286;DHT22;7744;52.172;10.668;2023-01-31T00:25:00;2.50;99.90
15286;DHT22;7744;52.172;10.668;2023-01-31T00:27:26;2.50;99.90
15286;DHT22;7744;52.172;10.668;2023-01-31T00:29:52;2.60;99.90
15286;DHT22;7744;52.172;10.668;2023-01-31T00:32:17;2.70;99.90
15286;DHT22;7744;52.172;10.668;2023-01-31T00:34:43;2.80;99.90
15286;DHT22;7744;52.172;10.668;2023-01-31T00:37:09;2.90;99.90
15286;DHT22;7744;52.172;10.668;2023-01-31T00:39:34;3.00;99.90
15286;DHT22;7744;52.172;10.668;2023-01-31T00:42:00;3.00;99.90
15286;DHT22;7744;52.172;10.668;2023-01-31T00:44:25;3.00;99.90
15286;DHT22;7744;52.172;10.668;2023-01-31T00:46:51;3.00;99.90
15286;DHT22;7744;52.172;10.668;2023-01-31T00:49:16;2.90;99.90
15286;DHT22;7744;52.172;10.668;2023-01-31T00:51:42;2.90;99.90
15286;DHT22;7744;52.172;10.668;2023-01-31T00:54:09;2.90;99.90
15286;DHT22;7744;52.172;10.668;2023-01-31T00:56:34;2.90;99.90
15286;DHT22;7744;52.172;10.668;2023-01-31T00:59:03;2.80;99.90
15286;DHT22;7744;52.172;10.668;2023-01-31T01:01:33;2.80;99.90
15286;DHT22;7744;52.172;10.668;2023-01-31T01:03:59;2.80;99.90
15286;DHT22;7744;52.172;10.668;2023-01-31T01:06:26;2.80;99.90
15286;DHT22;7744;52.172;10.668;2023-01-31T01:08:51;2.80;99.90
15286;DHT22;7744;52.172;10.668;2023-01-31T01:11:22;2.80;99.90
15286;DHT22;7744;52.172;10.668;2023-01-31T01:13:49;2.70;99.90
15286;DHT22;7744;52.172;10.668;2023-01-31T01:16:20;2.80;99.90
15286;DHT22;7744;52.172;10.668;2023-01-31T01:18:46;2.80;99.90
15286;DHT22;7744;52.172;10.668;2023-01-31T01:21:22;2.80;99.90
15286;DHT22;7744;52.172;10.668;2023-01-31T01:23:48;2.80;99.90
15286;DHT22;7744;52.172;10.668;2023-01-31T01:26:20;4.10;99.90
15286;DHT22;7744;52.172;10.668;2023-01-31T01:28:47;2.80;99.90
15286;DHT22;7744;52.172;10.668;2023-01-31T01:31:14;2.90;99.90
15286;DHT22;7744;52.172;10.668;2023-01-31T01:33:41;2.90;99.90
15286;DHT22;7744;52.172;10.668;2023-01-31T01:36:08;2.90;99.90
15286;DHT22;7744;52.172;10.668;2023-01-31T01:38:38;2.90;99.90
15286;DHT22;7744;52.172;10.668;2023-01-31T01:41:07;3.00;99.90
15286;DHT22;7744;52.172;10.668;2023-01-31T01:43:41;3.10;99.90
15286;DHT22;7744;52.172;10.668;2023-01-31T01:46:08;3.40;99.90
15286;DHT22;7744;52.172;10.668;2023-01-31T01:48:36;3.20;99.90
15286;DHT22;7744;52.172;10.668;2023-01-31T01:51:03;3.10;99.90
15286;DHT22;7744;52.172;10.668;2023-01-31T01:53:34;3.20;99.90
15286;DHT22;7744;52.172;10.668;2023-01-31T01:56:12;3.20;99.90
15286;DHT22;7744;52.172;10.668;2023-01-31T02:01:12;3.30;99.90
15286;DHT22;7744;52.172;10.668;2023-01-31T02:03:42;3.20;99.90
15286;DHT22;7744;52.172;10.668;2023-01-31T02:06:08;3.20;99.90
15286;DHT22;7744;52.172;10.668;2023-01-31T02:08:35;3.20;99.90
15286;DHT22;7744;52.172;10.668;2023-01-31T02:13:46;3.20;99.90
15286;DHT22;7744;52.172;10.668;2023-01-31T02:16:12;3.20;99.90
15286;DHT22;7744;52.172;10.668;2023-01-31T02:18:37;3.20;99.90
15286;DHT22;7744;52.172;10.668;2023-01-31T02:21:19;3.20;99.90
15286;DHT22;7744;52.172;10.668;2023-01-31T02:27:11;3.30;99.90
15286;DHT22;7744;52.172;10.668;2023-01-31T02:41:14;3.40;99.90
15286;DHT22;7744;52.172;10.668;2023-01-31T02:43:57;3.30;99.90
15286;DHT22;7744;52.172;10.668;2023-01-31T02:46:57;3.30;99.90
15286;DHT22;7744;52.172;10.668;2023-01-31T02:49:41;3.20;99.90
15286;DHT22;7744;52.172;10.668;2023-01-31T02:57:57;2.90;99.90
15286;DHT22;7744;52.172;10.668;2023-01-31T03:00:25;2.90;99.90
15286;DHT22;7744;52.172;10.668;2023-01-31T03:02:51;2.90;99.90
15286;DHT22;7744;52.172;10.668;2023-01-31T03:05:18;2.90;99.90
15286;DHT22;7744;52.172;10.668;2023-01-31T03:07:49;2.90;99.90
15286;DHT22;7744;52.172;10.668;2023-01-31T03:10:23;2.80;99.90
15286;DHT22;7744;52.172;10.668;2023-01-31T03:15:37;2.90;99.90
15286;DHT22;7744;52.172;10.668;2023-01-31T03:18:28;2.90;99.90
15286;DHT22;7744;52.172;10.668;2023-01-31T03:23:27;2.80;99.90
15286;DHT22;7744;52.172;10.668;2023-01-31T03:25:56;2.80;99.90
15286;DHT22;7744;52.172;10.668;2023-01-31T03:28:28;2.80;99.90
15286;DHT22;7744;52.172;10.668;2023-01-31T03:31:04;2.90;99.90
15286;DHT22;7744;52.172;10.668;2023-01-31T03:33:34;2.90;99.90
15286;DHT22;7744;52.172;10.668;2023-01-31T03:36:18;3.00;99.90
15286;DHT22;7744;52.172;10.668;2023-01-31T03:38:59;3.00;99.90
15286;DHT22;7744;52.172;10.668;2023-01-31T03:41:30;3.00;99.90
15286;DHT22;7744;52.172;10.668;2023-01-31T03:46:58;3.00;99.90
15286;DHT22;7744;52.172;10.668;2023-01-31T03:49:26;3.10;99.90
15286;DHT22;7744;52.172;10.668;2023-01-31T03:52:00;3.10;99.90
15286;DHT22;7744;52.172;10.668;2023-01-31T03:54:31;3.20;99.90
15286;DHT22;7744;52.172;10.668;2023-01-31T03:57:06;3.20;99.90
15286;DHT22;7744;52.172;10.668;2023-01-31T03:59:37;3.20;99.90
15286;DHT22;7744;52.172;10.668;2023-01-31T04:02:07;3.20;99.90
15286;DHT22;7744;52.172;10.668;2023-01-31T04:04:54;3.20;99.90
15286;DHT22;7744;52.172;10.668;2023-01-31T04:07:22;3.20;99.90
15286;DHT22;7744;52.172;10.668;2023-01-31T04:09:48;3.20;99.90
15286;DHT22;7744;52.172;10.668;2023-01-31T04:12:14;3.10;1.00
15286;DHT22;7744;52.172;10.668;2023-01-31T04:14:41;3.10;1.00
15286;DHT22;7744;52.172;10.668;2023-01-31T04:17:07;3.00;1.00
15286;DHT22;7744;52.172;10.668;2023-01-31T04:19:32;2.90;1.00
15286;DHT22;7744;52.172;10.668;2023-01-31T04:21:58;2.90;1.00
15286;DHT22;7744;52.172;10.668;2023-01-31T04:24:23;2.90;1.00
15286;DHT22;7744;52.172;10.668;2023-01-31T04:26:49;2.90;1.00
15286;DHT22;7744;52.172;10.668;2023-01-31T04:29:15;2.90;1.00
15286;DHT22;7744;52.172;10.668;2023-01-31T04:31:40;2.80;1.00
15286;DHT22;7744;52.172;10.668;2023-01-31T04:34:06;2.80;1.00
15286;DHT22;7744;52.172;10.668;2023-01-31T04:36:32;2.80;1.00
15286;DHT22;7744;52.172;10.668;2023-01-31T04:38:58;2.80;1.00
15286;DHT22;7744;52.172;10.668;2023-01-31T04:41:25;2.80;1.00
15286;DHT22;7744;52.172;10.668;2023-01-31T04:43:51;2.70;1.00
15286;DHT22;7744;52.172;10.668;2023-01-31T04:46:16;2.80;1.00
15286;DHT22;7744;52.172;10.668;2023-01-31T04:48:42;2.80;1.00
15286;DHT22;7744;52.172;10.668;2023-01-31T04:51:07;2.90;1.00
15286;DHT22;7744;52.172;10.668;2023-01-31T04:53:33;2.90;1.00
15286;DHT22;7744;52.172;10.668;2023-01-31T04:55:59;3.00;1.00
15286;DHT22;7744;52.172;10.668;2023-01-31T04:58:24;3.00;99.90
15286;DHT22;7744;52.172;10.668;2023-01-31T05:00:52;3.10;99.90
15286;DHT22;7744;52.172;10.668;2023-01-31T05:03:18;3.10;99.90
15286;DHT22;7744;52.172;10.668;2023-01-31T05:05:43;3.10;99.90
15286;DHT22;7744;52.172;10.668;2023-01-31T05:08:09;3.20;99.90
15286;DHT22;7744;52.172;10.668;2023-01-31T05:10:34;3.20;99.90
15286;DHT22;7744;52.172;10.668;2023-01-31T05:13:00;3.20;99.90
15286;DHT22;7744;52.172;10.668;2023-01-31T05:15:26;3.30;99.90
15286;DHT22;7744;52.172;10.668;2023-01-31T05:17:53;3.20;99.90
15286;DHT22;7744;52.172;10.668;2023-01-31T05:20:31;3.30;99.90
15286;DHT22;7744;52.172;10.668;2023-01-31T05:22:58;3.30;99.90
15286;DHT22;7744;52.172;10.668;2023-01-31T05:25:24;3.30;99.90
15286;DHT22;7744;52.172;10.668;2023-01-31T05:27:52;3.20;99.90
15286;DHT22;7744;52.172;10.668;2023-01-31T05:30:18;3.10;99.90
15286;DHT22;7744;52.172;10.668;2023-01-31T05:32:44;3.00;99.90
15286;DHT22;7744;52.172;10.668;2023-01-31T05:35:11;2.90;99.90
15286;DHT22;7744;52.172;10.668;2023-01-31T05:37:37;3.00;1.00
15286;DHT22;7744;52.172;10.668;2023-01-31T05:42:35;2.90;99.90
15286;DHT22;7744;52.172;10.668;2023-01-31T05:45:02;2.90;99.90
15286;DHT22;7744;52.172;10.668;2023-01-31T05:47:28;2.90;99.90
15286;DHT22;7744;52.172;10.668;2023-01-31T05:49:53;2.90;99.90
15286;DHT22;7744;52.172;10.668;2023-01-31T05:52:19;3.00;99.90
15286;DHT22;7744;52.172;10.668;2023-01-31T05:54:45;3.00;99.90
15286;DHT22;7744;52.172;10.668;2023-01-31T05:57:10;3.00;99.90
15286;DHT22;7744;52.172;10.668;2023-01-31T05:59:36;3.10;99.90
15286;DHT22;7744;52.172;10.668;2023-01-31T06:02:01;3.10;99.90
15286;DHT22;7744;52.172;10.668;2023-01-31T06:04:27;3.00;99.90
15286;DHT22;7744;52.172;10.668;2023-01-31T06:06:52;3.00;99.90
15286;DHT22;7744;52.172;10.668;2023-01-31T06:09:18;2.90;99.90
15286;DHT22;7744;52.172;10.668;2023-01-31T06:11:43;3.00;99.90
15286;DHT22;7744;52.172;10.668;2023-01-31T06:14:09;3.00;99.90
15286;DHT22;7744;52.172;10.668;2023-01-31T06:16:35;3.00;99.90
15286;DHT22;7744;52.172;10.668;2023-01-31T06:19:00;3.00;99.90
15286;DHT22;7744;52.172;10.668;2023-01-31T06:21:26;3.00;99.90
15286;DHT22;7744;52.172;10.668;2023-01-31T06:23:52;3.00;99.90
15286;DHT22;7744;52.172;10.668;2023-01-31T06:26:17;3.00;99.90
15286;DHT22;7744;52.172;10.668;2023-01-31T06:28:43;3.00;99.90
15286;DHT22;7744;52.172;10.668;2023-01-31T06:31:10;3.00;99.90
15286;DHT22;7744;52.172;10.668;2023-01-31T06:33:36;3.10;99.90
15286;DHT22;7744;52.172;10.668;2023-01-31T06:36:02;3.10;99.90
15286;DHT22;7744;52.172;10.668;2023-01-31T06:38:28;3.20;99.90
15286;DHT22;7744;52.172;10.668;2023-01-31T06:40:53;3.10;99.90
15286;DHT22;7744;52.172;10.668;2023-01-31T06:43:19;3.10;99.90
15286;DHT22;7744;52.172;10.668;2023-01-31T06:45:44;3.20;99.90
15286;DHT22;7744;52.172;10.668;2023-01-31T06:48:11;3.10;99.90
15286;DHT22;7744;52.172;10.668;2023-01-31T06:50:37;3.10;99.90
15286;DHT22;7744;52.172;10.668;2023-01-31T06:53:02;3.10;99.90
15286;DHT22;7744;52.172;10.668;2023-01-31T06:55:28;3.10;99.90
15286;DHT22;7744;52.172;10.668;2023-01-31T06:57:54;3.10;99.90
15286;DHT22;7744;52.172;10.668;2023-01-31T07:00:22;3.10;99.90
15286;DHT22;7744;52.172;10.668;2023-01-31T07:02:50;3.20;99.90
15286;DHT22;7744;52.172;10.668;2023-01-31T07:05:16;3.30;99.90
15286;DHT22;7744;52.172;10.668;2023-01-31T07:07:42;3.30;99.90
15286;DHT22;7744;52.172;10.668;2023-01-31T07:10:08;3.30;99.90
15286;DHT22;7744;52.172;10.668;2023-01-31T07:12:35;3.20;99.90
15286;DHT22;7744;52.172;10.668;2023-01-31T07:15:01;3.20;99.90
15286;DHT22;7744;52.172;10.668;2023-01-31T07:17:26;3.20;99.90
15286;DHT22;7744;52.172;10.668;2023-01-31T07:19:52;3.20;99.90
15286;DHT22;7744;52.172;10.668;2023-01-31T07:22:17;3.20;99.90
15286;DHT22;7744;52.172;10.668;2023-01-31T07:24:44;3.20;99.90
15286;DHT22;7744;52.172;10.668;2023-01-31T07:27:12;3.30;99.90
15286;DHT22;7744;52.172;10.668;2023-01-31T07:29:38;3.30;99.90
15286;DHT22;7744;52.172;10.668;2023-01-31T07:32:04;3.40;99.90
15286;DHT22;7744;52.172;10.668;2023-01-31T07:34:30;3.30;99.90
15286;DHT22;7744;52.172;10.668;2023-01-31T07:36:55;3.40;99.90
15286;DHT22;7744;52.172;10.668;2023-01-31T07:39:21;3.40;99.90
15286;DHT22;7744;52.172;10.668;2023-01-31T07:41:48;3.40;99.90
15286;DHT22;7744;52.172;10.668;2023-01-31T07:44:14;3.40;99.90
15286;DHT22;7744;52.172;10.668;2023-01-31T07:46:40;3.50;99.90
15286;DHT22;7744;52.172;10.668;2023-01-31T07:49:07;3.50;99.90
15286;DHT22;7744;52.172;10.668;2023-01-31T07:51:33;3.50;99.90
15286;DHT22;7744;52.172;10.668;2023-01-31T07:54:00;3.50;99.90
15286;DHT22;7744;52.172;10.668;2023-01-31T07:56:26;3.50;99.90
15286;DHT22;7744;52.172;10.668;2023-01-31T07:58:52;3.60;99.90
15286;DHT22;7744;52.172;10.668;2023-01-31T08:01:20;3.60;99.90
15286;DHT22;7744;52.172;10.668;2023-01-31T08:04:07;3.60;99.90
15286;DHT22;7744;52.172;10.668;2023-01-31T08:06:33;3.60;99.90
15286;DHT22;7744;52.172;10.668;2023-01-31T08:08:59;3.60;99.90
15286;DHT22;7744;52.172;10.668;2023-01-31T08:11:25;3.60;99.90
15286;DHT22;7744;52.172;10.668;2023-01-31T08:13:51;3.70;99.90
15286;DHT22;7744;52.172;10.668;2023-01-31T08:16:17;3.70;99.90
15286;DHT22;7744;52.172;10.668;2023-01-31T08:18:44;3.80;99.90
15286;DHT22;7744;52.172;10.668;2023-01-31T08:21:11;3.80;99.90
15286;DHT22;7744;52.172;10.668;2023-01-31T08:23:37;3.80;99.90
15286;DHT22;7744;52.172;10.668;2023-01-31T08:26:12;3.90;99.90
15286;DHT22;7744;52.172;10.668;2023-01-31T08:28:38;3.90;99.90
15286;DHT22;7744;52.172;10.668;2023-01-31T08:31:05;3.90;99.90
15286;DHT22;7744;52.172;10.668;2023-01-31T08:33:31;4.00;99.90
15286;DHT22;7744;52.172;10.668;2023-01-31T08:35:57;4.00;99.90
15286;DHT22;7744;52.172;10.668;2023-01-31T08:38:31;4.00;99.90
15286;DHT22;7744;52.172;10.668;2023-01-31T08:40:57;4.10;99.90
15286;DHT22;7744;52.172;10.668;2023-01-31T08:43:23;4.10;99.90
15286;DHT22;7744;52.172;10.668;2023-01-31T08:45:49;4.20;99.90
15286;DHT22;7744;52.172;10.668;2023-01-31T08:48:14;4.20;99.80
15286;DHT22;7744;52.172;10.668;2023-01-31T08:50:40;4.20;98.50
15286;DHT22;7744;52.172;10.668;2023-01-31T08:53:05;4.30;94.00
15286;DHT22;7744;52.172;10.668;2023-01-31T08:55:34;4.30;99.90
15286;DHT22;7744;52.172;10.668;2023-01-31T08:57:59;4.40;90.50
15286;DHT22;7744;52.172;10.668;2023-01-31T09:00:26;4.40;90.80
15286;DHT22;7744;52.172;10.668;2023-01-31T09:03:01;4.40;78.70
15286;DHT22;7744;52.172;10.668;2023-01-31T09:05:28;4.50;78.40
15286;DHT22;7744;52.172;10.668;2023-01-31T09:07:54;4.60;65.20
15286;DHT22;7744;52.172;10.668;2023-01-31T09:10:21;4.70;64.30
15286;DHT22;7744;52.172;10.668;2023-01-31T09:12:47;4.80;57.60
15286;DHT22;7744;52.172;10.668;2023-01-31T09:15:12;4.80;56.50
15286;DHT22;7744;52.172;10.668;2023-01-31T09:17:39;5.10;38.00
15286;DHT22;7744;52.172;10.668;2023-01-31T09:20:06;5.20;27.70
15286;DHT22;7744;52.172;10.668;2023-01-31T09:22:33;5.20;25.70
15286;DHT22;7744;52.172;10.668;2023-01-31T09:25:00;5.30;22.90
15286;DHT22;7744;52.172;10.668;2023-01-31T09:27:27;5.20;22.20
15286;DHT22;7744;52.172;10.668;2023-01-31T09:29:53;5.20;17.10
15286;DHT22;7744;52.172;10.668;2023-01-31T09:32:19;5.10;17.50
15286;DHT22;7744;52.172;10.668;2023-01-31T09:34:46;6.30;21.30
15286;DHT22;7744;52.172;10.668;2023-01-31T09:37:14;5.10;15.50
15286;DHT22;7744;52.172;10.668;2023-01-31T09:39:40;5.20;18.40
15286;DHT22;7744;52.172;10.668;2023-01-31T09:42:17;5.30;18.80
15286;DHT22;7744;52.172;10.668;2023-01-31T09:45:11;5.30;13.50
15286;DHT22;7744;52.172;10.668;2023-01-31T09:47:36;5.10;10.50
15286;DHT22;7744;52.172;10.668;2023-01-31T09:52:37;5.30;9.70
15286;DHT22;7744;52.172;10.668;2023-01-31T09:55:03;5.30;10.40
15286;DHT22;7744;52.172;10.668;2023-01-31T10:00:35;5.20;14.60
15286;DHT22;7744;52.172;10.668;2023-01-31T10:13:16;5.30;13.50
15286;DHT22;7744;52.172;10.668;2023-01-31T10:15:48;5.40;10.10
15286;DHT22;7744;52.172;10.668;2023-01-31T10:18:22;5.30;8.00
15286;DHT22;7744;52.172;10.668;2023-01-31T10:20:54;5.40;6.90
15286;DHT22;7744;52.172;10.668;2023-01-31T10:26:02;5.40;18.60
15286;DHT22;7744;52.172;10.668;2023-01-31T10:28:37;5.30;4.40
15286;DHT22;7744;52.172;10.668;2023-01-31T10:33:55;5.30;18.50
15286;DHT22;7744;52.172;10.668;2023-01-31T10:36:33;5.10;63.20
15286;DHT22;7744;52.172;10.668;2023-01-31T10:39:19;5.00;98.30
15286;DHT22;7744;52.172;10.668;2023-01-31T10:42:08;4.90;99.90
15286;DHT22;7744;52.172;10.668;2023-01-31T10:44:46;4.70;99.90
15286;DHT22;7744;52.172;10.668;2023-01-31T10:47:17;4.60;99.90
15286;DHT22;7744;52.172;10.668;2023-01-31T10:49:45;4.60;99.90
15286;DHT22;7744;52.172;10.668;2023-01-31T10:54:57;4.50;99.90
15286;DHT22;7744;52.172;10.668;2023-01-31T10:57:26;4.50;99.90
15286;DHT22;7744;52.172;10.668;2023-01-31T10:59:52;4.50;99.90
15286;DHT22;7744;52.172;10.668;2023-01-31T11:02:23;4.50;99.90
15286;DHT22;7744;52.172;10.668;2023-01-31T11:04:52;4.50;99.90
15286;DHT22;7744;52.172;10.668;2023-01-31T11:07:19;4.50;99.90
15286;DHT22;7744;52.172;10.668;2023-01-31T11:09:49;4.50;99.90
15286;DHT22;7744;52.172;10.668;2023-01-31T11:12:41;4.60;99.90
15286;DHT22;7744;52.172;10.668;2023-01-31T11:15:16;4.60;99.90
15286;DHT22;7744;52.172;10.668;2023-01-31T11:17:43;4.60;99.90
15286;DHT22;7744;52.172;10.668;2023-01-31T11:20:28;4.60;99.90
15286;DHT22;7744;52.172;10.668;2023-01-31T11:22:56;4.60;99.90
15286;DHT22;7744;52.172;10.668;2023-01-31T11:25:24;4.60;99.90
15286;DHT22;7744;52.172;10.668;2023-01-31T11:27:58;4.60;99.90
15286;DHT22;7744;52.172;10.668;2023-01-31T11:30:31;4.60;99.90
15286;DHT22;7744;52.172;10.668;2023-01-31T11:33:00;4.60;99.90
15286;DHT22;7744;52.172;10.668;2023-01-31T11:35:30;4.60;99.90
15286;DHT22;7744;52.172;10.668;2023-01-31T11:37:59;4.60;99.90
15286;DHT22;7744;52.172;10.668;2023-01-31T11:43:02;4.70;99.90
15286;DHT22;7744;52.172;10.668;2023-01-31T11:45:38;4.70;99.90
15286;DHT22;7744;52.172;10.668;2023-01-31T11:48:44;4.70;99.90
15286;DHT22;7744;52.172;10.668;2023-01-31T11:51:24;4.80;99.90
15286;DHT22;7744;52.172;10.668;2023-01-31T11:53:51;4.80;99.90
15286;DHT22;7744;52.172;10.668;2023-01-31T11:56:27;4.80;99.90
15286;DHT22;7744;52.172;10.668;2023-01-31T11:58:59;4.80;99.90
15286;DHT22;7744;52.172;10.668;2023-01-31T12:01:28;4.90;99.90
15286;DHT22;7744;52.172;10.668;2023-01-31T12:03:58;4.90;99.90
15286;DHT22;7744;52.172;10.668;2023-01-31T12:06:33;4.90;99.90
15286;DHT22;7744;52.172;10.668;2023-01-31T12:09:00;4.90;99.90
15286;DHT22;7744;52.172;10.668;2023-01-31T12:11:31;4.90;99.90
15286;DHT22;7744;52.172;10.668;2023-01-31T12:14:12;4.90;99.90
15286;DHT22;7744;52.172;10.668;2023-01-31T12:16:39;4.80;99.90
15286;DHT22;7744;52.172;10.668;2023-01-31T12:22:01;4.80;99.90
15286;DHT22;7744;52.172;10.668;2023-01-31T12:30:26;4.80;99.90
15286;DHT22;7744;52.172;10.668;2023-01-31T12:35:47;4.90;99.90
15286;DHT22;7744;52.172;10.668;2023-01-31T12:41:03;4.90;99.90
15286;DHT22;7744;52.172;10.668;2023-01-31T12:44:03;4.90;99.90
15286;DHT22;7744;52.172;10.668;2023-01-31T12:49:27;4.90;99.90
15286;DHT22;7744;52.172;10.668;2023-01-31T12:52:18;4.90;99.90
15286;DHT22;7744;52.172;10.668;2023-01-31T13:05:47;4.80;1.00
15286;DHT22;7744;52.172;10.668;2023-01-31T13:08:17;4.80;1.00
15286;DHT22;7744;52.172;10.668;2023-01-31T13:11:07;4.70;1.00
15286;DHT22;7744;52.172;10.668;2023-01-31T13:13:44;4.70;1.00
15286;DHT22;7744;52.172;10.668;2023-01-31T13:16:34;4.70;1.00
15286;DHT22;7744;52.172;10.668;2023-01-31T13:19:08;4.70;1.00
15286;DHT22;7744;52.172;10.668;2023-01-31T13:21:42;4.70;1.00
15286;DHT22;7744;52.172;10.668;2023-01-31T13:24:12;4.70;1.00
15286;DHT22;7744;52.172;10.668;2023-01-31T13:26:43;4.70;1.00
15286;DHT22;7744;52.172;10.668;2023-01-31T13:29:31;4.70;1.00
15286;DHT22;7744;52.172;10.668;2023-01-31T13:32:17;4.70;1.00
15286;DHT22;7744;52.172;10.668;2023-01-31T13:37:19;4.70;59.80
15286;DHT22;7744;52.172;10.668;2023-01-31T13:40:00;4.60;99.90
15286;DHT22;7744;52.172;10.668;2023-01-31T13:42:28;4.60;99.90
15286;DHT22;7744;52.172;10.668;2023-01-31T13:44:54;4.60;99.90
15286;DHT22;7744;52.172;10.668;2023-01-31T13:47:24;4.60;99.90
15286;DHT22;7744;52.172;10.668;2023-01-31T13:50:02;4.60;1.00
15286;DHT22;7744;52.172;10.668;2023-01-31T13:52:54;4.70;1.00
15286;DHT22;7744;52.172;10.668;2023-01-31T13:55:43;4.60;1.00
15286;DHT22;7744;52.172;10.668;2023-01-31T13:58:20;4.60;1.00
15286;DHT22;7744;52.172;10.668;2023-01-31T14:00:50;4.60;1.00
15286;DHT22;7744;52.172;10.668;2023-01-31T14:03:23;4.60;1.00
15286;DHT22;7744;52.172;10.668;2023-01-31T14:05:52;4.60;99.90
15286;DHT22;7744;52.172;10.668;2023-01-31T14:13:49;6.60;99.90
15286;DHT22;7744;52.172;10.668;2023-01-31T14:19:00;4.60;1.00
15286;DHT22;7744;52.172;10.668;2023-01-31T14:23:56;4.60;1.00
15286;DHT22;7744;52.172;10.668;2023-01-31T14:26:50;4.60;99.90
15286;DHT22;7744;52.172;10.668;2023-01-31T14:29:24;4.60;99.90
15286;DHT22;7744;52.172;10.668;2023-01-31T14:31:52;4.70;99.90
15286;DHT22;7744;52.172;10.668;2023-01-31T14:34:21;4.60;1.00
15286;DHT22;7744;52.172;10.668;2023-01-31T14:37:00;4.70;1.00
15286;DHT22;7744;52.172;10.668;2023-01-31T14:42:45;4.70;1.00
15286;DHT22;7744;52.172;10.668;2023-01-31T14:56:02;4.80;99.90
15286;DHT22;7744;52.172;10.668;2023-01-31T14:58:30;4.80;99.90
15286;DHT22;7744;52.172;10.668;2023-01-31T15:01:02;4.80;99.90
15286;DHT22;7744;52.172;10.668;2023-01-31T15:06:21;4.80;1.00
15286;DHT22;7744;52.172;10.668;2023-01-31T15:08:48;4.90;1.00
15286;DHT22;7744;52.172;10.668;2023-01-31T15:11:35;5.00;1.00
15286;DHT22;7744;52.172;10.668;2023-01-31T15:14:19;5.00;1.00
15286;DHT22;7744;52.172;10.668;2023-01-31T15:16:57;5.00;1.00
15286;DHT22;7744;52.172;10.668;2023-01-31T15:19:24;5.00;1.00
15286;DHT22;7744;52.172;10.668;2023-01-31T15:21:53;5.00;1.00
15286;DHT22;7744;52.172;10.668;2023-01-31T15:24:40;5.00;1.00
15286;DHT22;7744;52.172;10.668;2023-01-31T15:27:21;5.00;1.00
15286;DHT22;7744;52.172;10.668;2023-01-31T15:30:06;5.00;1.00
15286;DHT22;7744;52.172;10.668;2023-01-31T15:35:16;5.10;1.00
15286;DHT22;7744;52.172;10.668;2023-01-31T15:37:45;5.10;1.00
15286;DHT22;7744;52.172;10.668;2023-01-31T15:40:17;5.10;1.00
15286;DHT22;7744;52.172;10.668;2023-01-31T15:42:43;5.10;1.00
15286;DHT22;7744;52.172;10.668;2023-01-31T15:45:23;5.20;1.00
15286;DHT22;7744;52.172;10.668;2023-01-31T15:48:20;6.00;1.00
15286;DHT22;7744;52.172;10.668;2023-01-31T15:50:49;5.20;1.00
15286;DHT22;7744;52.172;10.668;2023-01-31T15:53:16;5.20;1.00
15286;DHT22;7744;52.172;10.668;2023-01-31T15:55:45;5.20;1.00
15286;DHT22;7744;52.172;10.668;2023-01-31T15:58:19;5.20;1.00
15286;DHT22;7744;52.172;10.668;2023-01-31T16:00:57;5.30;1.00
15286;DHT22;7744;52.172;10.668;2023-01-31T16:03:33;5.30;1.00
15286;DHT22;7744;52.172;10.668;2023-01-31T16:05:59;5.40;99.90
15286;DHT22;7744;52.172;10.668;2023-01-31T16:08:28;5.40;1.00
15286;DHT22;7744;52.172;10.668;2023-01-31T16:10:57;5.40;1.00
15286;DHT22;7744;52.172;10.668;2023-01-31T16:13:25;5.40;1.00
15286;DHT22;7744;52.172;10.668;2023-01-31T16:15:51;5.40;1.00
15286;DHT22;7744;52.172;10.668;2023-01-31T16:18:17;5.40;1.00
15286;DHT22;7744;52.172;10.668;2023-01-31T16:20:47;5.50;1.00
15286;DHT22;7744;52.172;10.668;2023-01-31T16:25:54;5.50;1.00
15286;DHT22;7744;52.172;10.668;2023-01-31T16:28:21;5.50;1.00
15286;DHT22;7744;52.172;10.668;2023-01-31T16:30:47;5.50;1.00
15286;DHT22;7744;52.172;10.668;2023-01-31T16:33:22;5.50;1.00
15286;DHT22;7744;52.172;10.668;2023-01-31T16:36:05;5.60;1.00
15286;DHT22;7744;52.172;10.668;2023-01-31T16:38:31;5.50;1.00
15286;DHT22;7744;52.172;10.668;2023-01-31T16:40:57;5.50;1.00
15286;DHT22;7744;52.172;10.668;2023-01-31T16:43:32;5.50;1.00
15286;DHT22;7744;52.172;10.668;2023-01-31T16:46:04;5.70;99.90
15286;DHT22;7744;52.172;10.668;2023-01-31T16:48:33;5.60;99.90
15286;DHT22;7744;52.172;10.668;2023-01-31T16:54:17;5.60;1.00
15286;DHT22;7744;52.172;10.668;2023-01-31T17:02:18;5.50;1.00
15286;DHT22;7744;52.172;10.668;2023-01-31T17:04:47;5.50;1.00
15286;DHT22;7744;52.172;10.668;2023-01-31T17:07:19;5.40;1.00
15286;DHT22;7744;52.172;10.668;2023-01-31T17:09:46;5.40;1.00
15286;DHT22;7744;52.172;10.668;2023-01-31T17:12:27;5.40;99.90
15286;DHT22;7744;52.172;10.668;2023-01-31T17:14:53;5.40;99.90
15286;DHT22;7744;52.172;10.668;2023-01-31T17:17:30;5.40;1.00
15286;DHT22;7744;52.172;10.668;2023-01-31T17:19:57;5.40;1.00
15286;DHT22;7744;52.172;10.668;2023-01-31T17:22:23;5.30;1.00
15286;DHT22;7744;52.172;10.668;2023-01-31T17:24:49;5.20;99.90
15286;DHT22;7744;52.172;10.668;2023-01-31T17:27:16;5.10;99.90
15286;DHT22;7744;52.172;10.668;2023-01-31T17:29:43;5.20;99.90
15286;DHT22;7744;52.172;10.668;2023-01-31T17:32:15;5.20;99.90
15286;DHT22;7744;52.172;10.668;2023-01-31T17:34:42;5.10;99.90
15286;DHT22;7744;52.172;10.668;2023-01-31T17:37:14;5.10;99.90
15286;DHT22;7744;52.172;10.668;2023-01-31T17:39:39;5.10;99.90
15286;DHT22;7744;52.172;10.668;2023-01-31T17:42:08;5.20;99.90
15286;DHT22;7744;52.172;10.668;2023-01-31T17:44:38;5.20;99.90
15286;DHT22;7744;52.172;10.668;2023-01-31T17:47:03;5.20;99.90
15286;DHT22;7744;52.172;10.668;2023-01-31T17:49:29;5.20;99.90
15286;DHT22;7744;52.172;10.668;2023-01-31T17:51:55;5.10;99.90
15286;DHT22;7744;52.172;10.668;2023-01-31T17:54:21;5.10;99.90
15286;DHT22;7744;52.172;10.668;2023-01-31T17:56:47;5.10;1.00
15286;DHT22;7744;52.172;10.668;2023-01-31T17:59:13;5.00;1.00
15286;DHT22;7744;52.172;10.668;2023-01-31T18:01:38;5.00;1.00
15286;DHT22;7744;52.172;10.668;2023-01-31T18:04:04;5.00;1.00
15286;DHT22;7744;52.172;10.668;2023-01-31T18:06:29;5.00;1.00
15286;DHT22;7744;52.172;10.668;2023-01-31T18:08:55;5.10;1.00
15286;DHT22;7744;52.172;10.668;2023-01-31T18:11:24;5.10;1.00
15286;DHT22;7744;52.172;10.668;2023-01-31T18:13:49;5.10;1.00
15286;DHT22;7744;52.172;10.668;2023-01-31T18:16:17;5.10;1.00
15286;DHT22;7744;52.172;10.668;2023-01-31T18:18:45;5.20;1.00
15286;DHT22;7744;52.172;10.668;2023-01-31T18:21:13;5.20;1.00